sensor_id;sensor_type;location;lat;lon;timestamp;pressure;altitude;pressure_sealevel;temperature;humidity
65553;BME280;72126;51.560;14.368;2024-02-26T00:01:43;99127.13;;;11.52;62.15
65553;BME280;72126;51.560;14.368;2024-02-26T00:04:08;99129.91;;;11.50;62.14
65553;BME280;72126;51.560;14.368;2024-02-26T00:06:33;99127.50;;;11.49;62.24
65553;BME280;72126;51.560;14.368;2024-02-26T00:08:58;99130.94;;;11.49;62.18
65553;BME280;72126;51.560;14.368;2024-02-26T00:11:23;99122.25;;;11.49;62.51
65553;BME280;72126;51.560;14.368;2024-02-26T00:13:48;99123.25;;;11.48;62.08
65553;BME280;72126;51.560;14.368;2024-02-26T00:16:14;99118.84;;;11.48;62.26
65553;BME280;72126;51.560;14.368;2024-02-26T00:18:39;99118.03;;;11.48;62.19
65553;BME280;72126;51.560;14.368;2024-02-26T00:21:04;99113.16;;;11.45;62.21
65553;BME280;72126;51.560;14.368;2024-02-26T00:23:29;99112.19;;;11.46;62.50
65553;BME280;72126;51.560;14.368;2024-02-26T00:25:55;99106.94;;;11.46;62.52
65553;BME280;72126;51.560;14.368;2024-02-26T00:28:21;99113.78;;;11.47;62.35
65553;BME280;72126;51.560;14.368;2024-02-26T00:30:46;99106.50;;;11.42;62.33
65553;BME280;72126;51.560;14.368;2024-02-26T00:33:11;99106.28;;;11.44;62.26
65553;BME280;72126;51.560;14.368;2024-02-26T00:35:36;99102.66;;;11.45;62.46
65553;BME280;72126;51.560;14.368;2024-02-26T00:38:02;99103.66;;;11.44;62.52
65553;BME280;72126;51.560;14.368;2024-02-26T00:40:27;99099.44;;;11.43;62.38
65553;BME280;72126;51.560;14.368;2024-02-26T00:42:52;99100.44;;;11.42;62.20
65553;BME280;72126;51.560;14.368;2024-02-26T00:45:17;99095.56;;;11.38;62.69
65553;BME280;72126;51.560;14.368;2024-02-26T00:47:43;99090.31;;;11.38;62.21
65553;BME280;72126;51.560;14.368;2024-02-26T00:50:08;99095.56;;;11.38;62.42
65553;BME280;72126;51.560;14.368;2024-02-26T00:52:34;99109.31;;;11.41;62.24
65553;BME280;72126;51.560;14.368;2024-02-26T00:54:59;99094.75;;;11.38;62.42
65553;BME280;72126;51.560;14.368;2024-02-26T00:57:25;99102.47;;;11.39;62.22
65553;BME280;72126;51.560;14.368;2024-02-26T00:59:50;99092.34;;;11.36;62.39
65553;BME280;72126;51.560;14.368;2024-02-26T01:02:15;99099.19;;;11.37;62.50
65553;BME280;72126;51.560;14.368;2024-02-26T01:04:40;99098.38;;;11.37;62.42
65553;BME280;72126;51.560;14.368;2024-02-26T01:07:05;99094.34;;;11.34;62.38
65553;BME280;72126;51.560;14.368;2024-02-26T01:09:30;99090.09;;;11.33;62.30
65553;BME280;72126;51.560;14.368;2024-02-26T01:11:56;99102.81;;;11.36;62.58
65553;BME280;72126;51.560;14.368;2024-02-26T01:14:21;99089.09;;;11.34;61.89
65553;BME280;72126;51.560;14.368;2024-02-26T01:16:46;99082.22;;;11.33;62.31
65553;BME280;72126;51.560;14.368;2024-02-26T01:19:11;99084.22;;;11.31;62.34
65553;BME280;72126;51.560;14.368;2024-02-26T01:21:36;99083.22;;;11.32;62.52
65553;BME280;72126;51.560;14.368;2024-02-26T01:24:02;99077.38;;;11.30;62.66
65553;BME280;72126;51.560;14.368;2024-02-26T01:26:27;99070.13;;;11.32;62.35
65553;BME280;72126;51.560;14.368;2024-02-26T01:28:52;99080.81;;;11.31;62.47
65553;BME280;72126;51.560;14.368;2024-02-26T01:31:17;99070.69;;;11.28;62.50
65553;BME280;72126;51.560;14.368;2024-02-26T01:33:42;99075.56;;;11.31;62.55
65553;BME280;72126;51.560;14.368;2024-02-26T01:36:08;99072.13;;;11.30;62.45
65553;BME280;72126;51.560;14.368;2024-02-26T01:38:33;99070.53;;;11.29;62.49
65553;BME280;72126;51.560;14.368;2024-02-26T01:40:58;99077.75;;;11.27;62.48
65553;BME280;72126;51.560;14.368;2024-02-26T01:43:23;99074.16;;;11.28;62.31
65553;BME280;72126;51.560;14.368;2024-02-26T01:45:48;99069.28;;;11.25;62.64
65553;BME280;72126;51.560;14.368;2024-02-26T01:48:14;99067.25;;;11.27;62.60
65553;BME280;72126;51.560;14.368;2024-02-26T01:50:40;99062.22;;;11.26;62.46
65553;BME280;72126;51.560;14.368;2024-02-26T01:53:06;99064.03;;;11.25;62.59
65553;BME280;72126;51.560;14.368;2024-02-26T01:55:32;99058.00;;;11.25;62.59
65553;BME280;72126;51.560;14.368;2024-02-26T01:57:58;99057.38;;;11.23;62.57
65553;BME280;72126;51.560;14.368;2024-02-26T02:00:24;99057.53;;;11.21;62.75
65553;BME280;72126;51.560;14.368;2024-02-26T02:02:50;99060.81;;;11.23;62.66
65553;BME280;72126;51.560;14.368;2024-02-26T02:05:16;99055.75;;;11.22;62.57
65553;BME280;72126;51.560;14.368;2024-02-26T02:07:41;99057.53;;;11.21;62.61
65553;BME280;72126;51.560;14.368;2024-02-26T02:10:07;99053.13;;;11.22;62.59
65553;BME280;72126;51.560;14.368;2024-02-26T02:12:33;99054.94;;;11.21;62.62
65553;BME280;72126;51.560;14.368;2024-02-26T02:14:58;99052.72;;;11.18;62.58
65553;BME280;72126;51.560;14.368;2024-02-26T02:17:24;99061.19;;;11.20;62.55
65553;BME280;72126;51.560;14.368;2024-02-26T02:19:49;99051.91;;;11.18;62.53
65553;BME280;72126;51.560;14.368;2024-02-26T02:22:14;99050.25;;;11.17;62.59
65553;BME280;72126;51.560;14.368;2024-02-26T02:24:39;99043.22;;;11.17;62.50
65553;BME280;72126;51.560;14.368;2024-02-26T02:27:04;99046.66;;;11.18;62.62
65553;BME280;72126;51.560;14.368;2024-02-26T02:29:30;99037.34;;;11.15;62.47
65553;BME280;72126;51.560;14.368;2024-02-26T02:31:56;99032.91;;;11.16;62.57
65553;BME280;72126;51.560;14.368;2024-02-26T02:34:21;99032.13;;;11.15;62.56
65553;BME280;72126;51.560;14.368;2024-02-26T02:36:53;99031.50;;;11.13;62.61
65553;BME280;72126;51.560;14.368;2024-02-26T02:39:19;99030.50;;;11.14;62.45
65553;BME280;72126;51.560;14.368;2024-02-26T02:41:44;99034.94;;;11.13;62.63
65553;BME280;72126;51.560;14.368;2024-02-26T02:44:10;99025.63;;;11.11;62.52
65553;BME280;72126;51.560;14.368;2024-02-26T02:46:35;99036.94;;;11.11;62.58
65553;BME280;72126;51.560;14.368;2024-02-26T02:49:01;99032.50;;;11.12;62.62
65553;BME280;72126;51.560;14.368;2024-02-26T02:51:26;99030.06;;;11.10;62.69
65553;BME280;72126;51.560;14.368;2024-02-26T02:53:51;99030.88;;;11.11;62.65
65553;BME280;72126;51.560;14.368;2024-02-26T02:56:16;99012.94;;;11.08;62.65
65553;BME280;72126;51.560;14.368;2024-02-26T02:58:41;99010.91;;;11.10;62.53
65553;BME280;72126;51.560;14.368;2024-02-26T03:01:07;99012.72;;;11.09;62.65
65553;BME280;72126;51.560;14.368;2024-02-26T03:03:32;99012.13;;;11.07;62.60
65553;BME280;72126;51.560;14.368;2024-02-26T03:05:57;99021.59;;;11.08;62.92
65553;BME280;72126;51.560;14.368;2024-02-26T03:08:22;99021.78;;;11.07;62.64
65553;BME280;72126;51.560;14.368;2024-02-26T03:10:47;99029.66;;;11.07;62.71
65553;BME280;72126;51.560;14.368;2024-02-26T03:13:13;99019.53;;;11.04;62.63
65553;BME280;72126;51.560;14.368;2024-02-26T03:15:38;99019.53;;;11.04;62.53
65553;BME280;72126;51.560;14.368;2024-02-26T03:18:03;99022.97;;;11.04;62.51
65553;BME280;72126;51.560;14.368;2024-02-26T03:20:28;99017.94;;;11.03;62.63
65553;BME280;72126;51.560;14.368;2024-02-26T03:22:53;99024.78;;;11.04;62.72
65553;BME280;72126;51.560;14.368;2024-02-26T03:25:19;99023.97;;;11.03;62.53
65553;BME280;72126;51.560;14.368;2024-02-26T03:27:44;99034.44;;;11.03;62.70
65553;BME280;72126;51.560;14.368;2024-02-26T03:30:09;99030.22;;;11.02;62.67
65553;BME280;72126;51.560;14.368;2024-02-26T03:32:35;99034.66;;;11.02;62.72
65553;BME280;72126;51.560;14.368;2024-02-26T03:35:00;99032.03;;;11.02;62.79
65553;BME280;72126;51.560;14.368;2024-02-26T03:37:25;99036.63;;;11.00;62.90
65553;BME280;72126;51.560;14.368;2024-02-26T03:39:50;99036.81;;;10.98;62.71
65553;BME280;72126;51.560;14.368;2024-02-26T03:42:16;99036.63;;;11.00;62.72
65553;BME280;72126;51.560;14.368;2024-02-26T03:44:42;99029.16;;;10.97;62.35
65553;BME280;72126;51.560;14.368;2024-02-26T03:47:07;99028.16;;;10.98;62.78
65553;BME280;72126;51.560;14.368;2024-02-26T03:49:32;99032.59;;;10.97;62.76
65553;BME280;72126;51.560;14.368;2024-02-26T03:51:57;99029.34;;;10.95;62.70
65553;BME280;72126;51.560;14.368;2024-02-26T03:54:22;99028.56;;;10.95;62.71
65553;BME280;72126;51.560;14.368;2024-02-26T03:56:47;99028.72;;;10.93;62.38
65553;BME280;72126;51.560;14.368;2024-02-26T03:59:13;99030.53;;;10.93;62.80
65553;BME280;72126;51.560;14.368;2024-02-26T04:01:38;99040.00;;;10.94;62.78
65553;BME280;72126;51.560;14.368;2024-02-26T04:04:03;99045.44;;;10.92;62.73
65553;BME280;72126;51.560;14.368;2024-02-26T04:06:28;99043.63;;;10.93;62.89
65553;BME280;72126;51.560;14.368;2024-02-26T04:08:53;99049.88;;;10.92;62.86
65553;BME280;72126;51.560;14.368;2024-02-26T04:11:19;99042.81;;;10.92;62.84
65553;BME280;72126;51.560;14.368;2024-02-26T04:13:44;99051.69;;;10.91;62.64
65553;BME280;72126;51.560;14.368;2024-02-26T04:16:09;99056.28;;;10.89;62.81
65553;BME280;72126;51.560;14.368;2024-02-26T04:18:34;99061.53;;;10.89;62.76
65553;BME280;72126;51.560;14.368;2024-02-26T04:21:00;99070.19;;;10.90;62.82
65553;BME280;72126;51.560;14.368;2024-02-26T04:23:25;99065.94;;;10.89;62.62
65553;BME280;72126;51.560;14.368;2024-02-26T04:25:50;99069.56;;;10.88;62.70
65553;BME280;72126;51.560;14.368;2024-02-26T04:28:15;99076.59;;;10.87;62.82
65553;BME280;72126;51.560;14.368;2024-02-26T04:30:41;99081.03;;;10.86;62.86
65553;BME280;72126;51.560;14.368;2024-02-26T04:33:06;99080.03;;;10.88;62.76
65553;BME280;72126;51.560;14.368;2024-02-26T04:35:31;99087.28;;;10.85;62.74
65553;BME280;72126;51.560;14.368;2024-02-26T04:37:57;99079.16;;;10.80;62.75
65553;BME280;72126;51.560;14.368;2024-02-26T04:40:22;99083.03;;;10.84;62.77
65553;BME280;72126;51.560;14.368;2024-02-26T04:42:47;99079.78;;;10.82;62.81
65553;BME280;72126;51.560;14.368;2024-02-26T04:45:12;99079.78;;;10.82;62.89
65553;BME280;72126;51.560;14.368;2024-02-26T04:47:38;99085.22;;;10.81;62.85
65553;BME280;72126;51.560;14.368;2024-02-26T04:50:03;99083.41;;;10.81;62.83
65553;BME280;72126;51.560;14.368;2024-02-26T04:52:28;99088.63;;;10.81;62.78
65553;BME280;72126;51.560;14.368;2024-02-26T04:54:54;99089.63;;;10.80;62.87
65553;BME280;72126;51.560;14.368;2024-02-26T04:57:19;99089.81;;;10.79;62.99
65553;BME280;72126;51.560;14.368;2024-02-26T04:59:44;99083.59;;;10.80;62.94
65553;BME280;72126;51.560;14.368;2024-02-26T05:02:09;99085.41;;;10.79;62.53
65553;BME280;72126;51.560;14.368;2024-02-26T05:04:34;99082.97;;;10.78;63.04
65553;BME280;72126;51.560;14.368;2024-02-26T05:07:00;99076.91;;;10.77;62.64
65553;BME280;72126;51.560;14.368;2024-02-26T05:09:25;99070.84;;;10.77;62.87
65553;BME280;72126;51.560;14.368;2024-02-26T05:11:50;99077.91;;;10.76;62.84
65553;BME280;72126;51.560;14.368;2024-02-26T05:14:15;99080.53;;;10.76;62.93
65553;BME280;72126;51.560;14.368;2024-02-26T05:16:40;99081.72;;;10.74;62.90
65553;BME280;72126;51.560;14.368;2024-02-26T05:19:06;99084.34;;;10.74;62.97
65553;BME280;72126;51.560;14.368;2024-02-26T05:21:31;99070.19;;;10.68;62.75
65553;BME280;72126;51.560;14.368;2024-02-26T05:23:57;99081.91;;;10.72;62.85
65553;BME280;72126;51.560;14.368;2024-02-26T05:26:23;99080.09;;;10.73;62.99
65553;BME280;72126;51.560;14.368;2024-02-26T05:28:48;99080.28;;;10.71;63.02
65553;BME280;72126;51.560;14.368;2024-02-26T05:31:14;99082.88;;;10.71;62.96
65553;BME280;72126;51.560;14.368;2024-02-26T05:33:39;99081.28;;;10.70;62.95
65553;BME280;72126;51.560;14.368;2024-02-26T05:36:05;99077.84;;;10.70;62.96
65553;BME280;72126;51.560;14.368;2024-02-26T05:38:30;99085.69;;;10.70;62.98
65553;BME280;72126;51.560;14.368;2024-02-26T05:40:56;99073.81;;;10.67;63.10
65553;BME280;72126;51.560;14.368;2024-02-26T05:43:21;99079.66;;;10.69;63.00
65553;BME280;72126;51.560;14.368;2024-02-26T05:45:46;99079.84;;;10.68;63.10
65553;BME280;72126;51.560;14.368;2024-02-26T05:48:11;99076.78;;;10.64;63.01
65553;BME280;72126;51.560;14.368;2024-02-26T05:50:36;99085.09;;;10.68;62.77
65553;BME280;72126;51.560;14.368;2024-02-26T05:53:01;99082.63;;;10.66;62.87
65553;BME280;72126;51.560;14.368;2024-02-26T05:55:27;99088.06;;;10.65;62.85
65553;BME280;72126;51.560;14.368;2024-02-26T05:57:52;99082.03;;;10.64;62.83
65553;BME280;72126;51.560;14.368;2024-02-26T06:00:17;99086.44;;;10.64;62.88
65553;BME280;72126;51.560;14.368;2024-02-26T06:02:43;99083.03;;;10.63;62.95
65553;BME280;72126;51.560;14.368;2024-02-26T06:05:08;99092.47;;;10.64;63.00
65553;BME280;72126;51.560;14.368;2024-02-26T06:07:33;99090.06;;;10.63;62.80
65553;BME280;72126;51.560;14.368;2024-02-26T06:09:58;99081.16;;;10.57;63.07
65553;BME280;72126;51.560;14.368;2024-02-26T06:12:23;99097.09;;;10.62;63.14
65553;BME280;72126;51.560;14.368;2024-02-26T06:14:49;99092.88;;;10.61;62.80
65553;BME280;72126;51.560;14.368;2024-02-26T06:17:14;99092.22;;;10.59;62.88
65553;BME280;72126;51.560;14.368;2024-02-26T06:19:39;99094.84;;;10.59;63.06
65553;BME280;72126;51.560;14.368;2024-02-26T06:22:04;99098.28;;;10.59;63.02
65553;BME280;72126;51.560;14.368;2024-02-26T06:24:29;99094.03;;;10.58;63.08
65553;BME280;72126;51.560;14.368;2024-02-26T06:26:55;99094.44;;;10.55;63.13
65553;BME280;72126;51.560;14.368;2024-02-26T06:29:20;99099.47;;;10.57;62.76
65553;BME280;72126;51.560;14.368;2024-02-26T06:31:45;99094.22;;;10.57;63.00
65553;BME280;72126;51.560;14.368;2024-02-26T06:34:10;99101.28;;;10.56;62.97
65553;BME280;72126;51.560;14.368;2024-02-26T06:36:35;99098.00;;;10.54;62.87
65553;BME280;72126;51.560;14.368;2024-02-26T06:39:01;99096.19;;;10.55;62.90
65553;BME280;72126;51.560;14.368;2024-02-26T06:41:26;99103.25;;;10.54;62.97
65553;BME280;72126;51.560;14.368;2024-02-26T06:43:51;99112.75;;;10.55;62.92
65553;BME280;72126;51.560;14.368;2024-02-26T06:46:16;99116.53;;;10.53;62.96
65553;BME280;72126;51.560;14.368;2024-02-26T06:48:41;99117.34;;;10.53;63.12
65553;BME280;72126;51.560;14.368;2024-02-26T06:51:06;99120.94;;;10.52;62.99
65553;BME280;72126;51.560;14.368;2024-02-26T06:53:32;99118.34;;;10.52;63.04
65553;BME280;72126;51.560;14.368;2024-02-26T06:55:57;99128.78;;;10.52;63.05
65553;BME280;72126;51.560;14.368;2024-02-26T06:58:22;99128.78;;;10.52;63.08
65553;BME280;72126;51.560;14.368;2024-02-26T07:00:47;99131.59;;;10.51;62.94
65553;BME280;72126;51.560;14.368;2024-02-26T07:03:12;99130.78;;;10.50;63.19
65553;BME280;72126;51.560;14.368;2024-02-26T07:05:37;99134.22;;;10.51;63.03
65553;BME280;72126;51.560;14.368;2024-02-26T07:08:06;99134.22;;;10.51;63.15
65553;BME280;72126;51.560;14.368;2024-02-26T07:10:31;99121.31;;;10.49;62.78
65553;BME280;72126;51.560;14.368;2024-02-26T07:12:56;99126.72;;;10.48;63.13
65553;BME280;72126;51.560;14.368;2024-02-26T07:15:21;99130.16;;;10.48;63.20
65553;BME280;72126;51.560;14.368;2024-02-26T07:17:46;99131.78;;;10.49;63.17
65553;BME280;72126;51.560;14.368;2024-02-26T07:20:12;99126.72;;;10.48;62.90
65553;BME280;72126;51.560;14.368;2024-02-26T07:22:37;99124.31;;;10.46;63.05
65553;BME280;72126;51.560;14.368;2024-02-26T07:25:02;99121.06;;;10.44;63.05
65553;BME280;72126;51.560;14.368;2024-02-26T07:27:28;99130.72;;;10.44;62.94
65553;BME280;72126;51.560;14.368;2024-02-26T07:29:53;99126.31;;;10.44;63.15
65553;BME280;72126;51.560;14.368;2024-02-26T07:32:18;99132.97;;;10.47;63.23
65553;BME280;72126;51.560;14.368;2024-02-26T07:34:43;99130.34;;;10.47;63.11
65553;BME280;72126;51.560;14.368;2024-02-26T07:37:08;99135.97;;;10.44;63.10
65553;BME280;72126;51.560;14.368;2024-02-26T07:39:34;99137.38;;;10.46;63.15
65553;BME280;72126;51.560;14.368;2024-02-26T07:41:59;99134.31;;;10.43;62.70
65553;BME280;72126;51.560;14.368;2024-02-26T07:44:24;99135.97;;;10.44;63.42
65553;BME280;72126;51.560;14.368;2024-02-26T07:46:49;99129.72;;;10.45;63.05
65553;BME280;72126;51.560;14.368;2024-02-26T07:49:14;99129.09;;;10.43;63.09
65553;BME280;72126;51.560;14.368;2024-02-26T07:51:40;99131.69;;;10.43;62.96
65553;BME280;72126;51.560;14.368;2024-02-26T07:54:05;99128.91;;;10.44;63.14
65553;BME280;72126;51.560;14.368;2024-02-26T07:56:30;99125.50;;;10.44;62.96
65553;BME280;72126;51.560;14.368;2024-02-26T07:58:55;99134.16;;;10.44;63.17
65553;BME280;72126;51.560;14.368;2024-02-26T08:01:20;99132.50;;;10.43;62.91
65553;BME280;72126;51.560;14.368;2024-02-26T08:03:46;99131.53;;;10.44;63.28
65553;BME280;72126;51.560;14.368;2024-02-26T08:06:11;99123.69;;;10.44;63.18
65553;BME280;72126;51.560;14.368;2024-02-26T08:08:36;99121.41;;;10.41;63.30
65553;BME280;72126;51.560;14.368;2024-02-26T08:11:01;99123.69;;;10.44;63.38
65553;BME280;72126;51.560;14.368;2024-02-26T08:13:27;99122.88;;;10.44;63.03
65553;BME280;72126;51.560;14.368;2024-02-26T08:15:52;99121.22;;;10.43;63.34
65553;BME280;72126;51.560;14.368;2024-02-26T08:18:18;99116.81;;;10.43;63.37
65553;BME280;72126;51.560;14.368;2024-02-26T08:20:43;99118.44;;;10.44;62.97
65553;BME280;72126;51.560;14.368;2024-02-26T08:23:08;99111.56;;;10.43;62.84
65553;BME280;72126;51.560;14.368;2024-02-26T08:25:33;99117.66;;;10.44;63.11
65553;BME280;72126;51.560;14.368;2024-02-26T08:27:59;99118.63;;;10.43;63.28
65553;BME280;72126;51.560;14.368;2024-02-26T08:30:24;99122.88;;;10.44;63.32
65553;BME280;72126;51.560;14.368;2024-02-26T08:32:49;99118.44;;;10.44;63.24
65553;BME280;72126;51.560;14.368;2024-02-26T08:35:17;99122.88;;;10.44;63.22
65553;BME280;72126;51.560;14.368;2024-02-26T08:37:46;99128.91;;;10.44;63.19
65553;BME280;72126;51.560;14.368;2024-02-26T08:40:11;99127.28;;;10.43;63.24
65553;BME280;72126;51.560;14.368;2024-02-26T08:42:36;99127.28;;;10.43;62.91
65553;BME280;72126;51.560;14.368;2024-02-26T08:45:05;99118.63;;;10.43;63.19
65553;BME280;72126;51.560;14.368;2024-02-26T08:47:30;99118.44;;;10.44;63.60
65553;BME280;72126;51.560;14.368;2024-02-26T08:49:56;99114.56;;;10.40;63.15
65553;BME280;72126;51.560;14.368;2024-02-26T08:52:21;99126.91;;;10.46;63.22
65553;BME280;72126;51.560;14.368;2024-02-26T08:54:46;99126.09;;;10.46;63.15
65553;BME280;72126;51.560;14.368;2024-02-26T08:57:11;99124.50;;;10.45;63.29
65553;BME280;72126;51.560;14.368;2024-02-26T08:59:36;99132.16;;;10.46;63.15
65553;BME280;72126;51.560;14.368;2024-02-26T09:02:02;99131.34;;;10.46;63.04
65553;BME280;72126;51.560;14.368;2024-02-26T09:04:27;99134.56;;;10.48;63.28
65553;BME280;72126;51.560;14.368;2024-02-26T09:06:52;99131.97;;;10.48;63.29
65553;BME280;72126;51.560;14.368;2024-02-26T09:09:18;99131.78;;;10.49;63.19
65553;BME280;72126;51.560;14.368;2024-02-26T09:11:43;99128.53;;;10.47;63.36
65553;BME280;72126;51.560;14.368;2024-02-26T09:14:08;99142.22;;;10.49;63.19
65553;BME280;72126;51.560;14.368;2024-02-26T09:16:33;99140.47;;;10.50;63.03
65553;BME280;72126;51.560;14.368;2024-02-26T09:18:59;99139.63;;;10.49;63.36
65553;BME280;72126;51.560;14.368;2024-02-26T09:21:24;99136.19;;;10.49;63.27
65553;BME280;72126;51.560;14.368;2024-02-26T09:23:50;99141.88;;;10.52;63.22
65553;BME280;72126;51.560;14.368;2024-02-26T09:26:15;99142.69;;;10.53;63.13
65553;BME280;72126;51.560;14.368;2024-02-26T09:28:40;99136.47;;;10.54;63.26
65553;BME280;72126;51.560;14.368;2024-02-26T09:31:06;99137.47;;;10.53;63.20
65553;BME280;72126;51.560;14.368;2024-02-26T09:33:31;99135.47;;;10.55;63.44
65553;BME280;72126;51.560;14.368;2024-02-26T09:35:56;99132.84;;;10.55;63.23
65553;BME280;72126;51.560;14.368;2024-02-26T09:38:21;99130.22;;;10.55;63.19
65553;BME280;72126;51.560;14.368;2024-02-26T09:40:47;99131.88;;;10.56;63.32
65553;BME280;72126;51.560;14.368;2024-02-26T09:43:14;99125.44;;;10.58;63.25
65553;BME280;72126;51.560;14.368;2024-02-26T09:45:40;99132.50;;;10.58;63.24
65553;BME280;72126;51.560;14.368;2024-02-26T09:48:08;99136.72;;;10.59;63.10
65553;BME280;72126;51.560;14.368;2024-02-26T09:50:33;99124.28;;;10.61;63.12
65553;BME280;72126;51.560;14.368;2024-02-26T09:52:59;99124.91;;;10.63;63.20
65553;BME280;72126;51.560;14.368;2024-02-26T09:55:24;99126.50;;;10.64;63.09
65553;BME280;72126;51.560;14.368;2024-02-26T09:57:51;99126.31;;;10.66;63.25
65553;BME280;72126;51.560;14.368;2024-02-26T10:00:21;99127.31;;;10.65;63.11
65553;BME280;72126;51.560;14.368;2024-02-26T10:02:47;99123.69;;;10.66;63.43
65553;BME280;72126;51.560;14.368;2024-02-26T10:05:14;99124.34;;;10.68;63.29
65553;BME280;72126;51.560;14.368;2024-02-26T10:07:42;99123.53;;;10.67;63.28
65553;BME280;72126;51.560;14.368;2024-02-26T10:10:09;99119.13;;;10.68;63.24
65553;BME280;72126;51.560;14.368;2024-02-26T10:12:34;99126.78;;;10.69;63.17
65553;BME280;72126;51.560;14.368;2024-02-26T10:14:59;99117.91;;;10.70;63.12
65553;BME280;72126;51.560;14.368;2024-02-26T10:17:25;99127.38;;;10.71;63.20
65553;BME280;72126;51.560;14.368;2024-02-26T10:19:51;99126.41;;;10.72;63.03
65553;BME280;72126;51.560;14.368;2024-02-26T10:22:16;99123.81;;;10.72;63.14
65553;BME280;72126;51.560;14.368;2024-02-26T10:24:41;99130.44;;;10.75;62.92
65553;BME280;72126;51.560;14.368;2024-02-26T10:27:08;99136.31;;;10.77;63.24
65553;BME280;72126;51.560;14.368;2024-02-26T10:29:34;99140.56;;;10.78;63.23
65553;BME280;72126;51.560;14.368;2024-02-26T10:31:59;99140.38;;;10.79;63.22
65553;BME280;72126;51.560;14.368;2024-02-26T10:34:25;99133.53;;;10.78;63.22
65553;BME280;72126;51.560;14.368;2024-02-26T10:36:50;99123.06;;;10.78;63.22
65553;BME280;72126;51.560;14.368;2024-02-26T10:39:15;99122.66;;;10.81;62.93
65553;BME280;72126;51.560;14.368;2024-02-26T10:41:41;99126.09;;;10.82;63.00
65553;BME280;72126;51.560;14.368;2024-02-26T10:44:10;99131.16;;;10.83;63.10
65553;BME280;72126;51.560;14.368;2024-02-26T10:46:42;99127.72;;;10.83;63.16
65553;BME280;72126;51.560;14.368;2024-02-26T10:49:14;99135.41;;;10.84;63.27
65553;BME280;72126;51.560;14.368;2024-02-26T10:51:43;99128.28;;;10.78;63.21
65553;BME280;72126;51.560;14.368;2024-02-26T10:54:10;99128.16;;;10.86;63.41
65553;BME280;72126;51.560;14.368;2024-02-26T10:56:39;99138.28;;;10.90;63.32
65553;BME280;72126;51.560;14.368;2024-02-26T10:59:07;99127.81;;;10.90;63.19
65553;BME280;72126;51.560;14.368;2024-02-26T11:01:34;99127.81;;;10.90;63.21
65553;BME280;72126;51.560;14.368;2024-02-26T11:04:00;99129.41;;;10.91;62.99
65553;BME280;72126;51.560;14.368;2024-02-26T11:06:26;99131.03;;;10.92;63.39
65553;BME280;72126;51.560;14.368;2024-02-26T11:08:52;99137.06;;;10.92;63.12
65553;BME280;72126;51.560;14.368;2024-02-26T11:11:18;99134.47;;;10.92;63.14
65553;BME280;72126;51.560;14.368;2024-02-26T11:13:47;99133.66;;;10.92;63.27
65553;BME280;72126;51.560;14.368;2024-02-26T11:16:12;99138.06;;;10.91;63.24
65553;BME280;72126;51.560;14.368;2024-02-26T11:18:39;99133.47;;;10.93;62.93
65553;BME280;72126;51.560;14.368;2024-02-26T11:21:05;99131.84;;;10.92;63.17
65553;BME280;72126;51.560;14.368;2024-02-26T11:23:32;99136.72;;;10.95;63.02
65553;BME280;72126;51.560;14.368;2024-02-26T11:25:58;99122.19;;;10.93;63.25
65553;BME280;72126;51.560;14.368;2024-02-26T11:28:26;99129.47;;;10.97;63.16
65553;BME280;72126;51.560;14.368;2024-02-26T11:30:53;99131.91;;;10.99;63.34
65553;BME280;72126;51.560;14.368;2024-02-26T11:33:19;99134.34;;;11.00;63.18
65553;BME280;72126;51.560;14.368;2024-02-26T11:35:45;99126.50;;;11.00;63.38
65553;BME280;72126;51.560;14.368;2024-02-26T11:38:19;99132.34;;;11.02;63.29
65553;BME280;72126;51.560;14.368;2024-02-26T11:40:45;99134.78;;;11.04;63.10
65553;BME280;72126;51.560;14.368;2024-02-26T11:43:10;99132.97;;;11.04;63.04
65553;BME280;72126;51.560;14.368;2024-02-26T11:48:03;99124.94;;;11.06;62.92
65553;BME280;72126;51.560;14.368;2024-02-26T11:50:36;99132.59;;;11.07;63.04
65553;BME280;72126;51.560;14.368;2024-02-26T11:58:44;99141.88;;;11.10;63.27
65553;BME280;72126;51.560;14.368;2024-02-26T12:01:47;99138.25;;;11.11;63.20
65553;BME280;72126;51.560;14.368;2024-02-26T12:04:24;99142.53;;;11.12;63.10
65553;BME280;72126;51.560;14.368;2024-02-26T12:06:51;99144.13;;;11.13;63.10
65553;BME280;72126;51.560;14.368;2024-02-26T12:09:38;99141.72;;;11.11;63.09
65553;BME280;72126;51.560;14.368;2024-02-26T12:12:05;99142.53;;;11.12;63.33
65553;BME280;72126;51.560;14.368;2024-02-26T12:14:33;99144.13;;;11.13;63.05
65553;BME280;72126;51.560;14.368;2024-02-26T12:16:59;99139.09;;;11.11;63.33
65553;BME280;72126;51.560;14.368;2024-02-26T12:19:24;99148.38;;;11.14;63.68
65553;BME280;72126;51.560;14.368;2024-02-26T12:21:51;99141.53;;;11.13;63.30
65553;BME280;72126;51.560;14.368;2024-02-26T12:24:18;99139.72;;;11.13;63.24
65553;BME280;72126;51.560;14.368;2024-02-26T12:26:43;99142.31;;;11.13;63.24
65553;BME280;72126;51.560;14.368;2024-02-26T12:29:09;99146.13;;;11.11;63.32
65553;BME280;72126;51.560;14.368;2024-02-26T12:31:34;99144.94;;;11.13;63.44
65553;BME280;72126;51.560;14.368;2024-02-26T12:34:00;99143.13;;;11.14;63.38
65553;BME280;72126;51.560;14.368;2024-02-26T12:36:26;99139.50;;;11.15;63.31
65553;BME280;72126;51.560;14.368;2024-02-26T12:38:51;99147.38;;;11.15;63.38
65553;BME280;72126;51.560;14.368;2024-02-26T12:41:17;99144.13;;;11.13;63.34
65553;BME280;72126;51.560;14.368;2024-02-26T12:43:42;99147.38;;;11.15;63.08
65553;BME280;72126;51.560;14.368;2024-02-26T12:46:08;99135.28;;;11.14;63.32
65553;BME280;72126;51.560;14.368;2024-02-26T12:48:33;99135.28;;;11.14;63.38
65553;BME280;72126;51.560;14.368;2024-02-26T12:50:59;99128.84;;;11.17;63.33